sensor_id;sensor_type;location;lat;lon;timestamp;P1;durP1;ratioP1;P2;durP2;ratioP2
76795;SDS011;65745;50.278;18.192;2023-05-07T00:01:45;18.80;;;13.80;;
76795;SDS011;65745;50.278;18.192;2023-05-07T00:04:17;17.10;;;12.90;;
76795;SDS011;65745;50.278;18.192;2023-05-07T00:06:50;15.10;;;13.10;;
76795;SDS011;65745;50.278;18.192;2023-05-07T00:09:22;17.10;;;14.80;;
76795;SDS011;65745;50.278;18.192;2023-05-07T00:11:54;17.90;;;14.80;;
76795;SDS011;65745;50.278;18.192;2023-05-07T00:14:26;17.50;;;14.70;;
76795;SDS011;65745;50.278;18.192;2023-05-07T00:16:58;20.10;;;16.40;;
76795;SDS011;65745;50.278;18.192;2023-05-07T00:19:30;20.60;;;17.00;;
76795;SDS011;65745;50.278;18.192;2023-05-07T00:22:02;19.20;;;15.00;;
76795;SDS011;65745;50.278;18.192;2023-05-07T00:24:34;18.60;;;14.50;;
76795;SDS011;65745;50.278;18.192;2023-05-07T00:27:07;16.70;;;13.40;;
76795;SDS011;65745;50.278;18.192;2023-05-07T00:29:39;16.50;;;13.20;;
76795;SDS011;65745;50.278;18.192;2023-05-07T00:32:11;16.00;;;12.60;;
76795;SDS011;65745;50.278;18.192;2023-05-07T00:34:44;16.60;;;14.30;;
76795;SDS011;65745;50.278;18.192;2023-05-07T00:37:16;15.40;;;12.50;;
76795;SDS011;65745;50.278;18.192;2023-05-07T00:39:48;15.00;;;13.10;;
76795;SDS011;65745;50.278;18.192;2023-05-07T00:42:20;16.70;;;13.30;;
76795;SDS011;65745;50.278;18.192;2023-05-07T00:44:53;14.70;;;13.10;;
76795;SDS011;65745;50.278;18.192;2023-05-07T00:47:25;13.80;;;10.70;;
76795;SDS011;65745;50.278;18.192;2023-05-07T00:49:57;17.40;;;13.50;;
76795;SDS011;65745;50.278;18.192;2023-05-07T00:52:30;16.90;;;11.90;;
76795;SDS011;65745;50.278;18.192;2023-05-07T00:55:03;17.80;;;13.30;;
76795;SDS011;65745;50.278;18.192;2023-05-07T00:57:37;16.10;;;13.30;;
76795;SDS011;65745;50.278;18.192;2023-05-07T01:00:12;15.40;;;12.90;;
76795;SDS011;65745;50.278;18.192;2023-05-07T01:02:44;15.30;;;12.60;;
76795;SDS011;65745;50.278;18.192;2023-05-07T01:05:18;14.80;;;12.60;;
76795;SDS011;65745;50.278;18.192;2023-05-07T01:07:52;14.00;;;12.00;;
76795;SDS011;65745;50.278;18.192;2023-05-07T01:10:25;14.40;;;11.50;;
76795;SDS011;65745;50.278;18.192;2023-05-07T01:12:59;15.20;;;12.70;;
76795;SDS011;65745;50.278;18.192;2023-05-07T01:15:33;15.20;;;13.00;;
76795;SDS011;65745;50.278;18.192;2023-05-07T01:18:05;13.80;;;11.80;;
76795;SDS011;65745;50.278;18.192;2023-05-07T01:20:37;15.20;;;12.60;;
76795;SDS011;65745;50.278;18.192;2023-05-07T01:23:10;20.80;;;14.30;;
76795;SDS011;65745;50.278;18.192;2023-05-07T01:25:42;18.70;;;13.40;;
76795;SDS011;65745;50.278;18.192;2023-05-07T01:28:21;19.20;;;12.90;;
76795;SDS011;65745;50.278;18.192;2023-05-07T01:30:54;18.60;;;14.60;;
76795;SDS011;65745;50.278;18.192;2023-05-07T01:33:31;15.00;;;12.20;;
76795;SDS011;65745;50.278;18.192;2023-05-07T01:36:05;15.40;;;13.80;;
76795;SDS011;65745;50.278;18.192;2023-05-07T01:38:39;15.30;;;12.60;;
76795;SDS011;65745;50.278;18.192;2023-05-07T01:43:45;17.20;;;13.00;;
76795;SDS011;65745;50.278;18.192;2023-05-07T01:46:17;19.80;;;14.50;;
76795;SDS011;65745;50.278;18.192;2023-05-07T01:48:50;17.10;;;13.90;;
76795;SDS011;65745;50.278;18.192;2023-05-07T01:51:22;14.80;;;12.20;;
76795;SDS011;65745;50.278;18.192;2023-05-07T01:53:55;15.30;;;11.30;;
76795;SDS011;65745;50.278;18.192;2023-05-07T01:56:27;20.20;;;12.20;;
76795;SDS011;65745;50.278;18.192;2023-05-07T01:59:00;17.30;;;11.30;;
76795;SDS011;65745;50.278;18.192;2023-05-07T02:01:33;15.00;;;11.10;;
76795;SDS011;65745;50.278;18.192;2023-05-07T02:04:05;13.50;;;10.70;;
76795;SDS011;65745;50.278;18.192;2023-05-07T02:06:38;13.00;;;9.60;;
76795;SDS011;65745;50.278;18.192;2023-05-07T02:09:13;15.30;;;10.80;;
76795;SDS011;65745;50.278;18.192;2023-05-07T02:11:47;14.40;;;8.90;;
76795;SDS011;65745;50.278;18.192;2023-05-07T02:14:20;17.40;;;11.20;;
76795;SDS011;65745;50.278;18.192;2023-05-07T02:16:53;18.00;;;10.50;;
76795;SDS011;65745;50.278;18.192;2023-05-07T02:19:25;19.70;;;11.30;;
76795;SDS011;65745;50.278;18.192;2023-05-07T02:21:57;17.20;;;11.10;;
76795;SDS011;65745;50.278;18.192;2023-05-07T02:24:32;16.90;;;10.50;;
76795;SDS011;65745;50.278;18.192;2023-05-07T02:27:04;16.80;;;11.20;;
76795;SDS011;65745;50.278;18.192;2023-05-07T02:29:36;14.10;;;9.70;;
76795;SDS011;65745;50.278;18.192;2023-05-07T02:32:09;13.00;;;9.00;;
76795;SDS011;65745;50.278;18.192;2023-05-07T02:34:41;9.70;;;8.00;;
76795;SDS011;65745;50.278;18.192;2023-05-07T02:37:13;10.70;;;7.20;;
76795;SDS011;65745;50.278;18.192;2023-05-07T02:39:46;10.60;;;8.70;;
76795;SDS011;65745;50.278;18.192;2023-05-07T02:42:18;14.20;;;9.10;;
76795;SDS011;65745;50.278;18.192;2023-05-07T02:44:50;13.70;;;9.70;;
76795;SDS011;65745;50.278;18.192;2023-05-07T02:47:23;9.40;;;7.50;;
76795;SDS011;65745;50.278;18.192;2023-05-07T02:49:57;10.30;;;7.70;;
76795;SDS011;65745;50.278;18.192;2023-05-07T02:52:31;11.20;;;7.90;;
76795;SDS011;65745;50.278;18.192;2023-05-07T02:55:03;9.90;;;8.10;;
76795;SDS011;65745;50.278;18.192;2023-05-07T02:57:37;9.40;;;8.10;;
76795;SDS011;65745;50.278;18.192;2023-05-07T03:00:13;10.00;;;8.40;;
76795;SDS011;65745;50.278;18.192;2023-05-07T03:02:56;9.70;;;8.20;;
76795;SDS011;65745;50.278;18.192;2023-05-07T03:05:29;9.40;;;7.30;;
76795;SDS011;65745;50.278;18.192;2023-05-07T03:08:01;11.60;;;7.90;;
76795;SDS011;65745;50.278;18.192;2023-05-07T03:10:34;9.60;;;8.10;;
76795;SDS011;65745;50.278;18.192;2023-05-07T03:13:06;8.60;;;7.30;;
76795;SDS011;65745;50.278;18.192;2023-05-07T03:15:39;9.70;;;7.80;;
76795;SDS011;65745;50.278;18.192;2023-05-07T03:18:11;7.90;;;6.60;;
76795;SDS011;65745;50.278;18.192;2023-05-07T03:20:43;9.50;;;6.30;;
76795;SDS011;65745;50.278;18.192;2023-05-07T03:23:18;8.70;;;6.40;;
76795;SDS011;65745;50.278;18.192;2023-05-07T03:25:58;9.70;;;6.30;;
76795;SDS011;65745;50.278;18.192;2023-05-07T03:28:30;7.10;;;5.80;;
76795;SDS011;65745;50.278;18.192;2023-05-07T03:31:04;7.40;;;6.30;;
76795;SDS011;65745;50.278;18.192;2023-05-07T03:33:38;7.60;;;5.90;;
76795;SDS011;65745;50.278;18.192;2023-05-07T03:36:20;6.80;;;5.90;;
76795;SDS011;65745;50.278;18.192;2023-05-07T03:38:54;7.60;;;6.20;;
76795;SDS011;65745;50.278;18.192;2023-05-07T03:41:28;8.80;;;5.60;;
76795;SDS011;65745;50.278;18.192;2023-05-07T03:44:00;6.40;;;5.60;;
76795;SDS011;65745;50.278;18.192;2023-05-07T03:46:32;10.00;;;6.50;;
76795;SDS011;65745;50.278;18.192;2023-05-07T03:49:05;7.30;;;6.30;;
76795;SDS011;65745;50.278;18.192;2023-05-07T03:51:37;5.50;;;5.00;;
76795;SDS011;65745;50.278;18.192;2023-05-07T03:54:09;6.10;;;5.40;;
76795;SDS011;65745;50.278;18.192;2023-05-07T03:56:45;5.80;;;4.60;;
76795;SDS011;65745;50.278;18.192;2023-05-07T03:59:17;7.50;;;6.00;;
76795;SDS011;65745;50.278;18.192;2023-05-07T04:01:49;7.00;;;5.20;;
76795;SDS011;65745;50.278;18.192;2023-05-07T04:04:23;6.10;;;5.10;;
76795;SDS011;65745;50.278;18.192;2023-05-07T04:06:56;6.70;;;5.20;;
76795;SDS011;65745;50.278;18.192;2023-05-07T04:09:28;6.40;;;5.20;;
76795;SDS011;65745;50.278;18.192;2023-05-07T04:12:00;6.10;;;4.70;;
76795;SDS011;65745;50.278;18.192;2023-05-07T04:14:33;6.90;;;5.20;;
76795;SDS011;65745;50.278;18.192;2023-05-07T04:17:05;6.60;;;5.10;;
76795;SDS011;65745;50.278;18.192;2023-05-07T04:19:39;8.20;;;5.60;;
76795;SDS011;65745;50.278;18.192;2023-05-07T04:22:16;6.20;;;5.10;;
76795;SDS011;65745;50.278;18.192;2023-05-07T04:24:48;6.10;;;4.70;;
76795;SDS011;65745;50.278;18.192;2023-05-07T04:27:21;5.60;;;4.80;;
76795;SDS011;65745;50.278;18.192;2023-05-07T04:29:53;6.90;;;4.80;;
76795;SDS011;65745;50.278;18.192;2023-05-07T04:32:27;5.60;;;5.00;;
76795;SDS011;65745;50.278;18.192;2023-05-07T04:35:01;7.70;;;5.50;;
76795;SDS011;65745;50.278;18.192;2023-05-07T04:37:33;5.70;;;5.10;;
76795;SDS011;65745;50.278;18.192;2023-05-07T04:40:07;6.80;;;5.90;;
76795;SDS011;65745;50.278;18.192;2023-05-07T04:42:40;9.10;;;6.20;;
76795;SDS011;65745;50.278;18.192;2023-05-07T04:45:13;7.10;;;5.90;;
76795;SDS011;65745;50.278;18.192;2023-05-07T04:47:46;6.70;;;4.90;;
76795;SDS011;65745;50.278;18.192;2023-05-07T04:50:19;6.10;;;5.40;;
76795;SDS011;65745;50.278;18.192;2023-05-07T04:52:54;5.00;;;4.50;;
76795;SDS011;65745;50.278;18.192;2023-05-07T04:55:26;6.60;;;4.90;;
76795;SDS011;65745;50.278;18.192;2023-05-07T04:57:58;7.10;;;4.90;;
76795;SDS011;65745;50.278;18.192;2023-05-07T05:00:32;8.70;;;5.60;;
76795;SDS011;65745;50.278;18.192;2023-05-07T05:03:05;7.10;;;5.40;;
76795;SDS011;65745;50.278;18.192;2023-05-07T05:05:39;6.70;;;5.30;;
76795;SDS011;65745;50.278;18.192;2023-05-07T05:08:11;5.20;;;4.70;;
76795;SDS011;65745;50.278;18.192;2023-05-07T05:10:44;6.90;;;5.30;;
76795;SDS011;65745;50.278;18.192;2023-05-07T05:13:17;7.30;;;4.90;;
76795;SDS011;65745;50.278;18.192;2023-05-07T05:15:50;6.10;;;4.70;;
76795;SDS011;65745;50.278;18.192;2023-05-07T05:18:23;7.50;;;4.70;;
76795;SDS011;65745;50.278;18.192;2023-05-07T05:20:55;7.60;;;4.90;;
76795;SDS011;65745;50.278;18.192;2023-05-07T05:23:28;7.50;;;4.90;;
76795;SDS011;65745;50.278;18.192;2023-05-07T05:26:00;8.70;;;5.50;;
76795;SDS011;65745;50.278;18.192;2023-05-07T05:28:33;7.40;;;5.30;;
76795;SDS011;65745;50.278;18.192;2023-05-07T05:31:05;6.80;;;5.00;;
76795;SDS011;65745;50.278;18.192;2023-05-07T05:33:38;7.40;;;6.10;;
76795;SDS011;65745;50.278;18.192;2023-05-07T05:36:10;7.20;;;4.90;;
76795;SDS011;65745;50.278;18.192;2023-05-07T05:38:43;7.80;;;5.40;;
76795;SDS011;65745;50.278;18.192;2023-05-07T05:41:15;5.40;;;4.20;;
76795;SDS011;65745;50.278;18.192;2023-05-07T05:43:48;4.90;;;4.30;;
76795;SDS011;65745;50.278;18.192;2023-05-07T05:46:20;6.40;;;4.80;;
76795;SDS011;65745;50.278;18.192;2023-05-07T05:48:52;6.10;;;4.60;;
76795;SDS011;65745;50.278;18.192;2023-05-07T05:51:25;6.70;;;5.30;;
76795;SDS011;65745;50.278;18.192;2023-05-07T05:53:57;6.10;;;4.70;;
76795;SDS011;65745;50.278;18.192;2023-05-07T05:56:30;6.40;;;4.90;;
76795;SDS011;65745;50.278;18.192;2023-05-07T05:59:02;5.20;;;4.60;;
76795;SDS011;65745;50.278;18.192;2023-05-07T06:01:35;6.00;;;4.60;;
76795;SDS011;65745;50.278;18.192;2023-05-07T06:04:08;4.60;;;3.80;;
76795;SDS011;65745;50.278;18.192;2023-05-07T06:06:40;6.40;;;4.60;;
76795;SDS011;65745;50.278;18.192;2023-05-07T06:09:13;4.70;;;3.90;;
76795;SDS011;65745;50.278;18.192;2023-05-07T06:11:45;4.50;;;4.10;;
76795;SDS011;65745;50.278;18.192;2023-05-07T06:14:19;6.50;;;5.10;;
76795;SDS011;65745;50.278;18.192;2023-05-07T06:16:51;5.90;;;5.20;;
76795;SDS011;65745;50.278;18.192;2023-05-07T06:19:23;5.60;;;5.00;;
76795;SDS011;65745;50.278;18.192;2023-05-07T06:21:58;6.60;;;5.80;;
76795;SDS011;65745;50.278;18.192;2023-05-07T06:24:32;6.50;;;5.90;;
76795;SDS011;65745;50.278;18.192;2023-05-07T06:27:05;6.90;;;4.20;;
76795;SDS011;65745;50.278;18.192;2023-05-07T06:29:38;7.30;;;5.60;;
76795;SDS011;65745;50.278;18.192;2023-05-07T06:32:14;7.10;;;6.00;;
76795;SDS011;65745;50.278;18.192;2023-05-07T06:34:47;6.60;;;6.00;;
76795;SDS011;65745;50.278;18.192;2023-05-07T06:37:20;3.90;;;3.20;;
76795;SDS011;65745;50.278;18.192;2023-05-07T06:39:59;4.90;;;3.90;;
76795;SDS011;65745;50.278;18.192;2023-05-07T06:42:32;6.90;;;5.60;;
76795;SDS011;65745;50.278;18.192;2023-05-07T06:45:20;5.20;;;4.70;;
76795;SDS011;65745;50.278;18.192;2023-05-07T06:47:54;5.30;;;4.80;;
76795;SDS011;65745;50.278;18.192;2023-05-07T06:50:26;5.40;;;4.90;;
76795;SDS011;65745;50.278;18.192;2023-05-07T06:52:59;5.90;;;5.30;;
76795;SDS011;65745;50.278;18.192;2023-05-07T06:55:34;6.40;;;5.80;;
76795;SDS011;65745;50.278;18.192;2023-05-07T06:58:07;7.10;;;6.10;;
76795;SDS011;65745;50.278;18.192;2023-05-07T07:00:40;6.80;;;5.90;;
76795;SDS011;65745;50.278;18.192;2023-05-07T07:03:12;6.30;;;4.70;;
76795;SDS011;65745;50.278;18.192;2023-05-07T07:05:45;6.00;;;5.10;;
76795;SDS011;65745;50.278;18.192;2023-05-07T07:08:17;4.40;;;4.00;;
76795;SDS011;65745;50.278;18.192;2023-05-07T07:10:51;5.50;;;4.40;;
76795;SDS011;65745;50.278;18.192;2023-05-07T07:13:26;7.30;;;5.30;;
76795;SDS011;65745;50.278;18.192;2023-05-07T07:15:58;4.80;;;4.40;;
76795;SDS011;65745;50.278;18.192;2023-05-07T07:18:30;7.60;;;5.40;;
76795;SDS011;65745;50.278;18.192;2023-05-07T07:21:03;5.90;;;5.30;;
76795;SDS011;65745;50.278;18.192;2023-05-07T07:23:35;6.30;;;5.70;;
76795;SDS011;65745;50.278;18.192;2023-05-07T07:26:07;4.90;;;4.40;;
76795;SDS011;65745;50.278;18.192;2023-05-07T07:28:43;5.50;;;4.00;;
76795;SDS011;65745;50.278;18.192;2023-05-07T07:31:19;7.70;;;4.70;;
76795;SDS011;65745;50.278;18.192;2023-05-07T07:33:52;9.50;;;5.10;;
76795;SDS011;65745;50.278;18.192;2023-05-07T07:36:24;7.30;;;4.50;;
76795;SDS011;65745;50.278;18.192;2023-05-07T07:39:15;5.90;;;4.70;;
76795;SDS011;65745;50.278;18.192;2023-05-07T07:41:48;7.30;;;4.70;;
76795;SDS011;65745;50.278;18.192;2023-05-07T07:44:21;8.80;;;3.90;;
76795;SDS011;65745;50.278;18.192;2023-05-07T07:46:57;4.90;;;3.40;;
76795;SDS011;65745;50.278;18.192;2023-05-07T07:49:30;4.10;;;3.10;;
76795;SDS011;65745;50.278;18.192;2023-05-07T07:52:05;3.10;;;2.70;;
76795;SDS011;65745;50.278;18.192;2023-05-07T07:54:38;3.20;;;2.70;;
76795;SDS011;65745;50.278;18.192;2023-05-07T07:57:11;5.60;;;3.30;;
76795;SDS011;65745;50.278;18.192;2023-05-07T07:59:46;3.80;;;3.20;;
76795;SDS011;65745;50.278;18.192;2023-05-07T08:02:19;4.20;;;3.10;;
76795;SDS011;65745;50.278;18.192;2023-05-07T08:04:52;4.40;;;3.40;;
76795;SDS011;65745;50.278;18.192;2023-05-07T08:07:25;7.30;;;4.30;;
76795;SDS011;65745;50.278;18.192;2023-05-07T08:09:57;4.60;;;3.30;;
76795;SDS011;65745;50.278;18.192;2023-05-07T08:12:30;4.10;;;2.90;;
76795;SDS011;65745;50.278;18.192;2023-05-07T08:15:04;3.60;;;2.50;;
76795;SDS011;65745;50.278;18.192;2023-05-07T08:17:37;4.50;;;2.90;;
76795;SDS011;65745;50.278;18.192;2023-05-07T08:20:10;4.20;;;2.90;;
76795;SDS011;65745;50.278;18.192;2023-05-07T08:22:43;4.60;;;3.80;;
76795;SDS011;65745;50.278;18.192;2023-05-07T08:25:16;3.90;;;3.10;;
76795;SDS011;65745;50.278;18.192;2023-05-07T08:27:49;4.10;;;3.00;;
76795;SDS011;65745;50.278;18.192;2023-05-07T08:30:21;3.30;;;2.30;;
76795;SDS011;65745;50.278;18.192;2023-05-07T08:32:54;4.80;;;2.70;;
76795;SDS011;65745;50.278;18.192;2023-05-07T08:35:26;4.80;;;2.70;;
76795;SDS011;65745;50.278;18.192;2023-05-07T08:37:59;3.60;;;2.70;;
76795;SDS011;65745;50.278;18.192;2023-05-07T08:40:33;3.50;;;3.10;;
76795;SDS011;65745;50.278;18.192;2023-05-07T08:43:14;3.40;;;2.40;;
76795;SDS011;65745;50.278;18.192;2023-05-07T08:45:47;4.40;;;2.90;;
76795;SDS011;65745;50.278;18.192;2023-05-07T08:48:26;4.50;;;4.10;;
76795;SDS011;65745;50.278;18.192;2023-05-07T08:51:06;4.20;;;3.30;;
76795;SDS011;65745;50.278;18.192;2023-05-07T08:53:38;3.10;;;2.80;;
76795;SDS011;65745;50.278;18.192;2023-05-07T08:56:15;2.70;;;2.20;;
76795;SDS011;65745;50.278;18.192;2023-05-07T08:58:51;3.20;;;2.60;;
76795;SDS011;65745;50.278;18.192;2023-05-07T09:01:25;3.90;;;2.80;;
76795;SDS011;65745;50.278;18.192;2023-05-07T09:03:58;2.90;;;2.50;;
76795;SDS011;65745;50.278;18.192;2023-05-07T09:06:31;3.80;;;2.70;;
76795;SDS011;65745;50.278;18.192;2023-05-07T09:09:04;3.60;;;2.80;;
76795;SDS011;65745;50.278;18.192;2023-05-07T09:11:36;3.30;;;2.60;;
76795;SDS011;65745;50.278;18.192;2023-05-07T09:14:08;3.00;;;2.60;;
76795;SDS011;65745;50.278;18.192;2023-05-07T09:16:42;2.70;;;2.40;;
76795;SDS011;65745;50.278;18.192;2023-05-07T09:19:16;3.30;;;3.00;;
76795;SDS011;65745;50.278;18.192;2023-05-07T09:21:59;3.40;;;2.80;;
76795;SDS011;65745;50.278;18.192;2023-05-07T09:24:39;3.60;;;2.90;;
76795;SDS011;65745;50.278;18.192;2023-05-07T09:27:18;3.30;;;2.50;;
76795;SDS011;65745;50.278;18.192;2023-05-07T09:29:50;4.10;;;2.90;;
76795;SDS011;65745;50.278;18.192;2023-05-07T09:32:22;2.60;;;2.10;;
76795;SDS011;65745;50.278;18.192;2023-05-07T09:34:56;2.70;;;2.00;;
76795;SDS011;65745;50.278;18.192;2023-05-07T09:37:28;3.30;;;2.50;;
76795;SDS011;65745;50.278;18.192;2023-05-07T09:40:03;3.50;;;3.10;;
76795;SDS011;65745;50.278;18.192;2023-05-07T09:42:37;4.90;;;2.80;;
76795;SDS011;65745;50.278;18.192;2023-05-07T09:45:10;4.00;;;3.60;;
76795;SDS011;65745;50.278;18.192;2023-05-07T09:47:43;2.90;;;2.60;;
76795;SDS011;65745;50.278;18.192;2023-05-07T09:50:19;3.10;;;2.80;;
76795;SDS011;65745;50.278;18.192;2023-05-07T09:52:57;3.40;;;2.60;;
76795;SDS011;65745;50.278;18.192;2023-05-07T09:55:30;2.90;;;2.70;;
76795;SDS011;65745;50.278;18.192;2023-05-07T09:58:02;4.30;;;3.70;;
76795;SDS011;65745;50.278;18.192;2023-05-07T10:00:37;3.50;;;2.90;;
76795;SDS011;65745;50.278;18.192;2023-05-07T10:03:11;3.20;;;2.80;;
76795;SDS011;65745;50.278;18.192;2023-05-07T10:05:54;3.70;;;2.60;;
76795;SDS011;65745;50.278;18.192;2023-05-07T10:08:29;3.20;;;2.90;;
76795;SDS011;65745;50.278;18.192;2023-05-07T10:11:03;4.10;;;3.70;;
76795;SDS011;65745;50.278;18.192;2023-05-07T10:13:36;3.40;;;3.10;;
76795;SDS011;65745;50.278;18.192;2023-05-07T10:16:10;3.40;;;3.00;;
76795;SDS011;65745;50.278;18.192;2023-05-07T10:18:46;3.50;;;2.90;;
76795;SDS011;65745;50.278;18.192;2023-05-07T10:21:22;6.60;;;3.50;;
76795;SDS011;65745;50.278;18.192;2023-05-07T10:24:03;3.30;;;2.80;;
76795;SDS011;65745;50.278;18.192;2023-05-07T10:26:50;3.70;;;3.10;;
76795;SDS011;65745;50.278;18.192;2023-05-07T10:29:28;4.00;;;3.60;;
76795;SDS011;65745;50.278;18.192;2023-05-07T10:32:14;4.60;;;3.70;;
76795;SDS011;65745;50.278;18.192;2023-05-07T10:35:02;8.30;;;6.20;;
76795;SDS011;65745;50.278;18.192;2023-05-07T10:37:40;5.50;;;3.90;;
76795;SDS011;65745;50.278;18.192;2023-05-07T10:40:14;5.10;;;4.40;;
76795;SDS011;65745;50.278;18.192;2023-05-07T10:42:59;5.20;;;3.00;;
76795;SDS011;65745;50.278;18.192;2023-05-07T10:45:45;5.50;;;4.20;;
76795;SDS011;65745;50.278;18.192;2023-05-07T10:49:09;4.60;;;4.20;;
76795;SDS011;65745;50.278;18.192;2023-05-07T10:51:48;8.10;;;5.70;;
76795;SDS011;65745;50.278;18.192;2023-05-07T10:58:24;5.10;;;4.20;;
76795;SDS011;65745;50.278;18.192;2023-05-07T11:04:38;4.00;;;3.60;;
76795;SDS011;65745;50.278;18.192;2023-05-07T11:07:26;5.60;;;4.40;;
76795;SDS011;65745;50.278;18.192;2023-05-07T11:10:08;4.30;;;3.70;;
76795;SDS011;65745;50.278;18.192;2023-05-07T11:12:52;6.60;;;5.30;;
76795;SDS011;65745;50.278;18.192;2023-05-07T11:15:38;6.50;;;5.50;;
76795;SDS011;65745;50.278;18.192;2023-05-07T11:18:19;5.30;;;4.50;;
76795;SDS011;65745;50.278;18.192;2023-05-07T11:20:55;4.30;;;3.70;;
76795;SDS011;65745;50.278;18.192;2023-05-07T11:23:56;3.80;;;3.20;;
76795;SDS011;65745;50.278;18.192;2023-05-07T11:26:53;10.00;;;6.30;;
76795;SDS011;65745;50.278;18.192;2023-05-07T11:29:26;33.00;;;16.80;;
76795;SDS011;65745;50.278;18.192;2023-05-07T11:32:05;37.20;;;18.50;;
76795;SDS011;65745;50.278;18.192;2023-05-07T11:34:46;77.00;;;39.10;;
76795;SDS011;65745;50.278;18.192;2023-05-07T11:37:22;50.00;;;27.70;;
76795;SDS011;65745;50.278;18.192;2023-05-07T11:40:03;20.60;;;13.70;;
76795;SDS011;65745;50.278;18.192;2023-05-07T11:42:38;17.70;;;13.10;;
76795;SDS011;65745;50.278;18.192;2023-05-07T11:45:12;12.20;;;8.70;;
76795;SDS011;65745;50.278;18.192;2023-05-07T11:47:55;16.20;;;13.50;;
76795;SDS011;65745;50.278;18.192;2023-05-07T11:50:27;13.30;;;11.10;;
76795;SDS011;65745;50.278;18.192;2023-05-07T11:53:00;7.90;;;6.10;;
76795;SDS011;65745;50.278;18.192;2023-05-07T11:55:38;5.30;;;4.70;;
76795;SDS011;65745;50.278;18.192;2023-05-07T11:58:18;34.10;;;24.40;;
76795;SDS011;65745;50.278;18.192;2023-05-07T12:00:54;18.40;;;11.00;;
76795;SDS011;65745;50.278;18.192;2023-05-07T12:03:27;7.70;;;5.60;;
76795;SDS011;65745;50.278;18.192;2023-05-07T12:06:04;18.00;;;12.90;;
76795;SDS011;65745;50.278;18.192;2023-05-07T12:08:38;16.60;;;11.50;;
76795;SDS011;65745;50.278;18.192;2023-05-07T12:11:15;17.50;;;13.00;;
76795;SDS011;65745;50.278;18.192;2023-05-07T12:13:53;21.10;;;13.10;;
76795;SDS011;65745;50.278;18.192;2023-05-07T12:16:28;21.30;;;13.10;;
76795;SDS011;65745;50.278;18.192;2023-05-07T12:19:01;47.80;;;20.50;;
76795;SDS011;65745;50.278;18.192;2023-05-07T12:21:33;29.40;;;13.00;;
76795;SDS011;65745;50.278;18.192;2023-05-07T12:24:07;23.10;;;10.50;;
76795;SDS011;65745;50.278;18.192;2023-05-07T12:26:40;13.20;;;7.50;;
76795;SDS011;65745;50.278;18.192;2023-05-07T12:29:13;34.50;;;14.70;;
76795;SDS011;65745;50.278;18.192;2023-05-07T12:31:46;29.70;;;12.50;;
76795;SDS011;65745;50.278;18.192;2023-05-07T12:34:19;23.50;;;10.70;;
76795;SDS011;65745;50.278;18.192;2023-05-07T12:36:52;44.70;;;17.20;;
76795;SDS011;65745;50.278;18.192;2023-05-07T12:39:25;27.00;;;11.20;;
76795;SDS011;65745;50.278;18.192;2023-05-07T12:41:58;29.60;;;10.50;;
76795;SDS011;65745;50.278;18.192;2023-05-07T12:44:31;56.50;;;20.60;;
76795;SDS011;65745;50.278;18.192;2023-05-07T12:47:05;24.20;;;10.00;;
76795;SDS011;65745;50.278;18.192;2023-05-07T12:49:37;42.40;;;18.00;;
76795;SDS011;65745;50.278;18.192;2023-05-07T12:52:11;18.90;;;9.00;;
76795;SDS011;65745;50.278;18.192;2023-05-07T12:54:44;12.90;;;8.80;;
76795;SDS011;65745;50.278;18.192;2023-05-07T12:57:18;21.80;;;11.20;;
76795;SDS011;65745;50.278;18.192;2023-05-07T12:59:51;19.60;;;13.40;;
76795;SDS011;65745;50.278;18.192;2023-05-07T13:02:33;20.50;;;15.80;;
76795;SDS011;65745;50.278;18.192;2023-05-07T13:05:08;13.60;;;7.70;;
76795;SDS011;65745;50.278;18.192;2023-05-07T13:07:41;8.90;;;6.30;;
76795;SDS011;65745;50.278;18.192;2023-05-07T13:10:25;13.30;;;6.10;;
76795;SDS011;65745;50.278;18.192;2023-05-07T13:12:57;17.20;;;8.00;;
76795;SDS011;65745;50.278;18.192;2023-05-07T13:15:30;6.70;;;6.00;;
76795;SDS011;65745;50.278;18.192;2023-05-07T13:18:02;27.40;;;12.10;;
76795;SDS011;65745;50.278;18.192;2023-05-07T13:20:35;25.50;;;13.30;;
76795;SDS011;65745;50.278;18.192;2023-05-07T13:23:07;15.70;;;9.20;;
76795;SDS011;65745;50.278;18.192;2023-05-07T13:25:40;22.00;;;12.30;;
76795;SDS011;65745;50.278;18.192;2023-05-07T13:28:12;19.40;;;10.70;;
76795;SDS011;65745;50.278;18.192;2023-05-07T13:30:44;15.70;;;7.30;;
76795;SDS011;65745;50.278;18.192;2023-05-07T13:33:17;17.30;;;9.90;;
76795;SDS011;65745;50.278;18.192;2023-05-07T13:35:50;11.30;;;7.20;;
76795;SDS011;65745;50.278;18.192;2023-05-07T13:38:22;12.90;;;7.70;;
76795;SDS011;65745;50.278;18.192;2023-05-07T13:40:54;13.80;;;8.20;;
76795;SDS011;65745;50.278;18.192;2023-05-07T13:43:26;9.50;;;6.40;;
76795;SDS011;65745;50.278;18.192;2023-05-07T13:45:59;19.50;;;11.80;;
76795;SDS011;65745;50.278;18.192;2023-05-07T13:48:31;22.20;;;13.60;;
76795;SDS011;65745;50.278;18.192;2023-05-07T13:51:03;11.80;;;7.60;;
76795;SDS011;65745;50.278;18.192;2023-05-07T13:53:35;7.70;;;4.90;;
76795;SDS011;65745;50.278;18.192;2023-05-07T13:56:08;6.50;;;4.80;;
76795;SDS011;65745;50.278;18.192;2023-05-07T13:58:40;8.00;;;5.80;;
76795;SDS011;65745;50.278;18.192;2023-05-07T14:01:24;6.40;;;4.50;;
76795;SDS011;65745;50.278;18.192;2023-05-07T14:03:57;5.70;;;4.60;;
76795;SDS011;65745;50.278;18.192;2023-05-07T14:06:30;4.50;;;3.90;;
76795;SDS011;65745;50.278;18.192;2023-05-07T14:09:02;10.10;;;6.50;;
76795;SDS011;65745;50.278;18.192;2023-05-07T14:11:35;7.80;;;5.00;;
76795;SDS011;65745;50.278;18.192;2023-05-07T14:14:07;5.80;;;4.10;;
76795;SDS011;65745;50.278;18.192;2023-05-07T14:16:40;5.70;;;4.70;;
76795;SDS011;65745;50.278;18.192;2023-05-07T14:19:13;7.90;;;5.20;;
76795;SDS011;65745;50.278;18.192;2023-05-07T14:21:45;5.40;;;3.90;;
76795;SDS011;65745;50.278;18.192;2023-05-07T14:24:18;8.40;;;5.90;;
76795;SDS011;65745;50.278;18.192;2023-05-07T14:27:06;7.50;;;4.90;;
76795;SDS011;65745;50.278;18.192;2023-05-07T14:29:39;9.20;;;4.90;;
76795;SDS011;65745;50.278;18.192;2023-05-07T14:32:11;8.40;;;5.30;;
76795;SDS011;65745;50.278;18.192;2023-05-07T14:34:44;12.40;;;6.20;;
76795;SDS011;65745;50.278;18.192;2023-05-07T14:37:17;26.80;;;10.60;;
76795;SDS011;65745;50.278;18.192;2023-05-07T14:39:50;18.60;;;8.80;;
76795;SDS011;65745;50.278;18.192;2023-05-07T14:42:22;8.30;;;4.70;;
76795;SDS011;65745;50.278;18.192;2023-05-07T14:44:54;16.30;;;8.00;;
76795;SDS011;65745;50.278;18.192;2023-05-07T14:47:26;27.10;;;11.70;;
76795;SDS011;65745;50.278;18.192;2023-05-07T14:49:59;13.60;;;6.90;;
76795;SDS011;65745;50.278;18.192;2023-05-07T14:52:31;9.00;;;5.80;;
76795;SDS011;65745;50.278;18.192;2023-05-07T14:55:03;37.30;;;15.70;;
76795;SDS011;65745;50.278;18.192;2023-05-07T14:57:37;22.30;;;11.00;;
76795;SDS011;65745;50.278;18.192;2023-05-07T15:00:10;9.10;;;6.00;;
76795;SDS011;65745;50.278;18.192;2023-05-07T15:02:43;7.30;;;4.70;;
76795;SDS011;65745;50.278;18.192;2023-05-07T15:05:16;19.40;;;11.50;;
76795;SDS011;65745;50.278;18.192;2023-05-07T15:07:49;18.90;;;11.20;;
76795;SDS011;65745;50.278;18.192;2023-05-07T15:10:25;13.20;;;9.10;;
76795;SDS011;65745;50.278;18.192;2023-05-07T15:12:58;8.80;;;5.60;;
76795;SDS011;65745;50.278;18.192;2023-05-07T15:15:30;5.80;;;4.30;;
76795;SDS011;65745;50.278;18.192;2023-05-07T15:18:04;4.60;;;4.00;;